sensor_id;sensor_type;location;lat;lon;timestamp;P1;durP1;ratioP1;P2;durP2;ratioP2
5303;SDS011;2674;49.722;10.892;2023-08-30T00:02:09;4.00;;;3.70;;
5303;SDS011;2674;49.722;10.892;2023-08-30T00:04:35;8.90;;;3.30;;
5303;SDS011;2674;49.722;10.892;2023-08-30T00:07:01;3.10;;;2.83;;
5303;SDS011;2674;49.722;10.892;2023-08-30T00:09:27;3.20;;;3.00;;
5303;SDS011;2674;49.722;10.892;2023-08-30T00:11:53;3.83;;;3.30;;
5303;SDS011;2674;49.722;10.892;2023-08-30T00:14:19;3.43;;;3.13;;
5303;SDS011;2674;49.722;10.892;2023-08-30T00:16:45;9.00;;;3.77;;
5303;SDS011;2674;49.722;10.892;2023-08-30T00:19:10;5.23;;;3.00;;
5303;SDS011;2674;49.722;10.892;2023-08-30T00:21:37;3.47;;;3.17;;
5303;SDS011;2674;49.722;10.892;2023-08-30T00:24:03;4.83;;;3.10;;
5303;SDS011;2674;49.722;10.892;2023-08-30T00:26:33;3.07;;;2.87;;
5303;SDS011;2674;49.722;10.892;2023-08-30T00:29:01;3.80;;;3.50;;
5303;SDS011;2674;49.722;10.892;2023-08-30T00:31:27;3.80;;;3.27;;
5303;SDS011;2674;49.722;10.892;2023-08-30T00:33:53;4.87;;;3.07;;
5303;SDS011;2674;49.722;10.892;2023-08-30T00:36:19;3.30;;;2.77;;
5303;SDS011;2674;49.722;10.892;2023-08-30T00:38:44;4.80;;;3.20;;
5303;SDS011;2674;49.722;10.892;2023-08-30T00:41:12;5.30;;;2.53;;
5303;SDS011;2674;49.722;10.892;2023-08-30T00:43:38;6.80;;;3.00;;
5303;SDS011;2674;49.722;10.892;2023-08-30T00:46:04;2.70;;;2.50;;
5303;SDS011;2674;49.722;10.892;2023-08-30T00:48:30;5.30;;;2.27;;
5303;SDS011;2674;49.722;10.892;2023-08-30T00:50:56;10.30;;;3.10;;
5303;SDS011;2674;49.722;10.892;2023-08-30T00:53:22;2.50;;;2.13;;
5303;SDS011;2674;49.722;10.892;2023-08-30T00:55:48;3.00;;;2.80;;
5303;SDS011;2674;49.722;10.892;2023-08-30T00:58:14;2.70;;;2.50;;
5303;SDS011;2674;49.722;10.892;2023-08-30T01:00:40;4.10;;;3.80;;
5303;SDS011;2674;49.722;10.892;2023-08-30T01:03:06;3.70;;;3.50;;
5303;SDS011;2674;49.722;10.892;2023-08-30T01:05:34;3.00;;;2.70;;
5303;SDS011;2674;49.722;10.892;2023-08-30T01:08:00;5.40;;;3.07;;
5303;SDS011;2674;49.722;10.892;2023-08-30T01:11:11;2.90;;;2.70;;
5303;SDS011;2674;49.722;10.892;2023-08-30T01:13:27;4.40;;;2.97;;
5303;SDS011;2674;49.722;10.892;2023-08-30T01:15:56;3.00;;;2.80;;
5303;SDS011;2674;49.722;10.892;2023-08-30T01:18:25;2.73;;;2.30;;
5303;SDS011;2674;49.722;10.892;2023-08-30T01:20:53;2.87;;;2.67;;
5303;SDS011;2674;49.722;10.892;2023-08-30T01:28:54;3.30;;;3.00;;
5303;SDS011;2674;49.722;10.892;2023-08-30T01:32:36;4.07;;;3.10;;
5303;SDS011;2674;49.722;10.892;2023-08-30T01:39:07;4.90;;;3.00;;
5303;SDS011;2674;49.722;10.892;2023-08-30T01:45:18;3.90;;;3.17;;
5303;SDS011;2674;49.722;10.892;2023-08-30T01:47:46;3.40;;;3.20;;
5303;SDS011;2674;49.722;10.892;2023-08-30T01:50:13;4.37;;;3.67;;
5303;SDS011;2674;49.722;10.892;2023-08-30T01:52:40;4.20;;;3.83;;
5303;SDS011;2674;49.722;10.892;2023-08-30T01:55:07;4.20;;;3.90;;
5303;SDS011;2674;49.722;10.892;2023-08-30T01:57:34;6.30;;;4.40;;
5303;SDS011;2674;49.722;10.892;2023-08-30T02:00:00;4.10;;;3.80;;
5303;SDS011;2674;49.722;10.892;2023-08-30T02:02:28;3.67;;;2.93;;
5303;SDS011;2674;49.722;10.892;2023-08-30T02:04:55;3.90;;;3.60;;
5303;SDS011;2674;49.722;10.892;2023-08-30T02:07:22;3.10;;;2.90;;
5303;SDS011;2674;49.722;10.892;2023-08-30T02:10:06;5.83;;;3.93;;
5303;SDS011;2674;49.722;10.892;2023-08-30T02:12:42;4.13;;;3.73;;
5303;SDS011;2674;49.722;10.892;2023-08-30T02:15:12;4.50;;;4.17;;
5303;SDS011;2674;49.722;10.892;2023-08-30T02:17:39;4.70;;;4.30;;
5303;SDS011;2674;49.722;10.892;2023-08-30T02:20:05;8.10;;;4.37;;
5303;SDS011;2674;49.722;10.892;2023-08-30T02:22:32;4.20;;;3.90;;
5303;SDS011;2674;49.722;10.892;2023-08-30T02:24:58;5.00;;;3.87;;
5303;SDS011;2674;49.722;10.892;2023-08-30T02:27:30;3.97;;;3.60;;
5303;SDS011;2674;49.722;10.892;2023-08-30T02:29:56;7.07;;;4.70;;
5303;SDS011;2674;49.722;10.892;2023-08-30T02:32:22;4.30;;;3.90;;
5303;SDS011;2674;49.722;10.892;2023-08-30T02:34:49;4.43;;;3.57;;
5303;SDS011;2674;49.722;10.892;2023-08-30T02:37:16;14.10;;;4.20;;
5303;SDS011;2674;49.722;10.892;2023-08-30T02:39:42;3.57;;;3.20;;
5303;SDS011;2674;49.722;10.892;2023-08-30T02:42:08;5.57;;;3.77;;
5303;SDS011;2674;49.722;10.892;2023-08-30T02:44:34;3.87;;;3.57;;
5303;SDS011;2674;49.722;10.892;2023-08-30T02:47:00;3.30;;;3.00;;
5303;SDS011;2674;49.722;10.892;2023-08-30T02:49:26;3.13;;;3.00;;
5303;SDS011;2674;49.722;10.892;2023-08-30T02:51:52;3.07;;;2.77;;
5303;SDS011;2674;49.722;10.892;2023-08-30T02:54:17;3.60;;;3.37;;
5303;SDS011;2674;49.722;10.892;2023-08-30T02:56:43;3.47;;;3.27;;
5303;SDS011;2674;49.722;10.892;2023-08-30T02:59:09;3.97;;;3.67;;
5303;SDS011;2674;49.722;10.892;2023-08-30T03:01:39;2.77;;;2.57;;
5303;SDS011;2674;49.722;10.892;2023-08-30T03:04:05;3.67;;;3.40;;
5303;SDS011;2674;49.722;10.892;2023-08-30T03:06:34;5.00;;;4.07;;
5303;SDS011;2674;49.722;10.892;2023-08-30T03:09:01;3.60;;;3.30;;
5303;SDS011;2674;49.722;10.892;2023-08-30T03:11:31;5.40;;;2.73;;
5303;SDS011;2674;49.722;10.892;2023-08-30T03:13:57;5.07;;;3.47;;
5303;SDS011;2674;49.722;10.892;2023-08-30T03:16:23;3.30;;;3.10;;
5303;SDS011;2674;49.722;10.892;2023-08-30T03:18:49;3.80;;;3.50;;
5303;SDS011;2674;49.722;10.892;2023-08-30T03:21:15;4.63;;;3.43;;
5303;SDS011;2674;49.722;10.892;2023-08-30T03:23:44;4.90;;;4.07;;
5303;SDS011;2674;49.722;10.892;2023-08-30T03:26:10;4.30;;;3.70;;
5303;SDS011;2674;49.722;10.892;2023-08-30T03:28:40;17.80;;;4.20;;
5303;SDS011;2674;49.722;10.892;2023-08-30T03:31:20;30.93;;;4.90;;
5303;SDS011;2674;49.722;10.892;2023-08-30T03:33:46;7.13;;;4.43;;
5303;SDS011;2674;49.722;10.892;2023-08-30T03:36:14;10.53;;;5.10;;
5303;SDS011;2674;49.722;10.892;2023-08-30T03:38:41;30.47;;;5.07;;
5303;SDS011;2674;49.722;10.892;2023-08-30T03:41:08;12.77;;;4.80;;
5303;SDS011;2674;49.722;10.892;2023-08-30T03:43:35;40.03;;;4.73;;
5303;SDS011;2674;49.722;10.892;2023-08-30T03:46:01;49.30;;;5.33;;
5303;SDS011;2674;49.722;10.892;2023-08-30T03:48:28;18.43;;;4.40;;
5303;SDS011;2674;49.722;10.892;2023-08-30T03:50:55;58.17;;;5.63;;
5303;SDS011;2674;49.722;10.892;2023-08-30T03:53:21;73.10;;;5.60;;
5303;SDS011;2674;49.722;10.892;2023-08-30T03:55:47;81.47;;;5.97;;
5303;SDS011;2674;49.722;10.892;2023-08-30T03:58:13;25.40;;;5.50;;
5303;SDS011;2674;49.722;10.892;2023-08-30T04:00:39;20.23;;;5.10;;
5303;SDS011;2674;49.722;10.892;2023-08-30T04:03:09;10.80;;;5.87;;
5303;SDS011;2674;49.722;10.892;2023-08-30T04:05:35;33.83;;;5.67;;
5303;SDS011;2674;49.722;10.892;2023-08-30T04:08:02;30.80;;;6.00;;
5303;SDS011;2674;49.722;10.892;2023-08-30T04:10:29;24.17;;;6.07;;
5303;SDS011;2674;49.722;10.892;2023-08-30T04:12:55;16.23;;;5.20;;
5303;SDS011;2674;49.722;10.892;2023-08-30T04:15:20;26.27;;;5.50;;
5303;SDS011;2674;49.722;10.892;2023-08-30T04:17:46;14.97;;;5.60;;
5303;SDS011;2674;49.722;10.892;2023-08-30T04:20:12;11.43;;;5.10;;
5303;SDS011;2674;49.722;10.892;2023-08-30T04:22:38;23.33;;;5.67;;
5303;SDS011;2674;49.722;10.892;2023-08-30T04:25:04;9.20;;;5.87;;
5303;SDS011;2674;49.722;10.892;2023-08-30T04:27:32;12.33;;;5.43;;
5303;SDS011;2674;49.722;10.892;2023-08-30T04:29:58;14.43;;;5.40;;
5303;SDS011;2674;49.722;10.892;2023-08-30T04:32:24;9.40;;;5.40;;
5303;SDS011;2674;49.722;10.892;2023-08-30T04:34:50;10.47;;;6.07;;
5303;SDS011;2674;49.722;10.892;2023-08-30T04:37:15;7.80;;;5.70;;
5303;SDS011;2674;49.722;10.892;2023-08-30T04:39:41;9.30;;;6.33;;
5303;SDS011;2674;49.722;10.892;2023-08-30T04:42:07;26.60;;;6.60;;
5303;SDS011;2674;49.722;10.892;2023-08-30T04:44:33;7.97;;;5.83;;
5303;SDS011;2674;49.722;10.892;2023-08-30T04:46:59;16.53;;;5.50;;
5303;SDS011;2674;49.722;10.892;2023-08-30T04:49:26;8.90;;;5.23;;
5303;SDS011;2674;49.722;10.892;2023-08-30T04:51:54;6.60;;;4.50;;
5303;SDS011;2674;49.722;10.892;2023-08-30T04:54:20;17.30;;;4.33;;
5303;SDS011;2674;49.722;10.892;2023-08-30T04:56:45;7.70;;;5.10;;
5303;SDS011;2674;49.722;10.892;2023-08-30T04:59:11;8.13;;;5.20;;
5303;SDS011;2674;49.722;10.892;2023-08-30T05:01:37;12.10;;;5.50;;
5303;SDS011;2674;49.722;10.892;2023-08-30T05:04:04;7.00;;;5.97;;
5303;SDS011;2674;49.722;10.892;2023-08-30T05:06:31;7.70;;;5.63;;
5303;SDS011;2674;49.722;10.892;2023-08-30T05:08:57;8.07;;;6.00;;
5303;SDS011;2674;49.722;10.892;2023-08-30T05:11:23;7.30;;;6.47;;
5303;SDS011;2674;49.722;10.892;2023-08-30T05:13:49;10.03;;;6.27;;
5303;SDS011;2674;49.722;10.892;2023-08-30T05:16:15;10.87;;;6.37;;
5303;SDS011;2674;49.722;10.892;2023-08-30T05:18:40;8.13;;;7.10;;
5303;SDS011;2674;49.722;10.892;2023-08-30T05:21:06;8.63;;;7.10;;
5303;SDS011;2674;49.722;10.892;2023-08-30T05:23:32;7.90;;;6.10;;
5303;SDS011;2674;49.722;10.892;2023-08-30T05:25:58;8.50;;;7.67;;
5303;SDS011;2674;49.722;10.892;2023-08-30T05:28:24;8.60;;;7.47;;
5303;SDS011;2674;49.722;10.892;2023-08-30T05:30:49;9.40;;;7.30;;
5303;SDS011;2674;49.722;10.892;2023-08-30T05:33:15;9.03;;;7.00;;
5303;SDS011;2674;49.722;10.892;2023-08-30T05:35:41;10.10;;;7.70;;
5303;SDS011;2674;49.722;10.892;2023-08-30T05:38:07;12.03;;;8.23;;
5303;SDS011;2674;49.722;10.892;2023-08-30T05:40:33;11.93;;;8.23;;
5303;SDS011;2674;49.722;10.892;2023-08-30T05:42:59;7.73;;;6.93;;
5303;SDS011;2674;49.722;10.892;2023-08-30T05:45:25;7.17;;;6.43;;
5303;SDS011;2674;49.722;10.892;2023-08-30T05:47:51;9.00;;;7.13;;
5303;SDS011;2674;49.722;10.892;2023-08-30T05:50:17;7.77;;;6.97;;
5303;SDS011;2674;49.722;10.892;2023-08-30T05:52:43;16.43;;;7.63;;
5303;SDS011;2674;49.722;10.892;2023-08-30T05:55:10;9.47;;;7.37;;
5303;SDS011;2674;49.722;10.892;2023-08-30T05:57:36;11.20;;;7.50;;
5303;SDS011;2674;49.722;10.892;2023-08-30T06:00:02;9.13;;;7.43;;
5303;SDS011;2674;49.722;10.892;2023-08-30T06:02:30;9.67;;;8.00;;
5303;SDS011;2674;49.722;10.892;2023-08-30T06:04:56;9.47;;;7.37;;
5303;SDS011;2674;49.722;10.892;2023-08-30T06:07:21;12.77;;;9.20;;
5303;SDS011;2674;49.722;10.892;2023-08-30T06:09:48;12.47;;;9.37;;
5303;SDS011;2674;49.722;10.892;2023-08-30T06:12:14;15.63;;;8.60;;
5303;SDS011;2674;49.722;10.892;2023-08-30T06:14:40;14.30;;;10.03;;
5303;SDS011;2674;49.722;10.892;2023-08-30T06:17:07;14.80;;;10.60;;
5303;SDS011;2674;49.722;10.892;2023-08-30T06:19:33;16.03;;;11.23;;
5303;SDS011;2674;49.722;10.892;2023-08-30T06:21:58;16.47;;;10.83;;
5303;SDS011;2674;49.722;10.892;2023-08-30T06:24:24;17.90;;;12.57;;
5303;SDS011;2674;49.722;10.892;2023-08-30T06:26:50;18.03;;;12.03;;
5303;SDS011;2674;49.722;10.892;2023-08-30T06:29:16;19.93;;;12.70;;
5303;SDS011;2674;49.722;10.892;2023-08-30T06:31:42;20.60;;;11.90;;
5303;SDS011;2674;49.722;10.892;2023-08-30T06:34:09;21.30;;;12.73;;
5303;SDS011;2674;49.722;10.892;2023-08-30T06:36:35;15.97;;;11.50;;
5303;SDS011;2674;49.722;10.892;2023-08-30T06:39:00;16.10;;;11.00;;
5303;SDS011;2674;49.722;10.892;2023-08-30T06:41:26;18.23;;;12.07;;
5303;SDS011;2674;49.722;10.892;2023-08-30T06:43:52;15.60;;;12.10;;
5303;SDS011;2674;49.722;10.892;2023-08-30T06:46:18;15.73;;;12.53;;
5303;SDS011;2674;49.722;10.892;2023-08-30T06:48:44;14.83;;;11.10;;
5303;SDS011;2674;49.722;10.892;2023-08-30T06:51:10;14.67;;;11.30;;
5303;SDS011;2674;49.722;10.892;2023-08-30T06:53:36;15.57;;;11.57;;
5303;SDS011;2674;49.722;10.892;2023-08-30T06:56:02;13.50;;;10.83;;
5303;SDS011;2674;49.722;10.892;2023-08-30T06:58:28;15.67;;;12.43;;
5303;SDS011;2674;49.722;10.892;2023-08-30T07:00:56;17.03;;;12.43;;
5303;SDS011;2674;49.722;10.892;2023-08-30T07:03:22;15.20;;;11.37;;
5303;SDS011;2674;49.722;10.892;2023-08-30T07:05:50;16.27;;;11.43;;
5303;SDS011;2674;49.722;10.892;2023-08-30T07:08:16;14.73;;;11.73;;
5303;SDS011;2674;49.722;10.892;2023-08-30T07:10:42;18.90;;;13.10;;
5303;SDS011;2674;49.722;10.892;2023-08-30T07:13:08;16.80;;;12.10;;
5303;SDS011;2674;49.722;10.892;2023-08-30T07:15:41;18.10;;;13.57;;
5303;SDS011;2674;49.722;10.892;2023-08-30T07:18:11;17.17;;;12.80;;
5303;SDS011;2674;49.722;10.892;2023-08-30T07:20:38;15.73;;;11.40;;
5303;SDS011;2674;49.722;10.892;2023-08-30T07:23:04;14.43;;;11.63;;
5303;SDS011;2674;49.722;10.892;2023-08-30T07:25:30;16.43;;;12.30;;
5303;SDS011;2674;49.722;10.892;2023-08-30T07:27:58;13.83;;;11.00;;
5303;SDS011;2674;49.722;10.892;2023-08-30T07:30:26;13.80;;;11.00;;
5303;SDS011;2674;49.722;10.892;2023-08-30T07:32:53;14.30;;;10.90;;
5303;SDS011;2674;49.722;10.892;2023-08-30T07:35:19;17.37;;;11.60;;
5303;SDS011;2674;49.722;10.892;2023-08-30T07:37:45;13.27;;;11.30;;
5303;SDS011;2674;49.722;10.892;2023-08-30T07:40:11;18.13;;;12.13;;
5303;SDS011;2674;49.722;10.892;2023-08-30T07:42:37;14.67;;;11.47;;
5303;SDS011;2674;49.722;10.892;2023-08-30T07:45:04;15.17;;;12.53;;
5303;SDS011;2674;49.722;10.892;2023-08-30T07:47:31;14.43;;;11.70;;
5303;SDS011;2674;49.722;10.892;2023-08-30T07:49:57;25.70;;;14.37;;
5303;SDS011;2674;49.722;10.892;2023-08-30T07:52:23;20.80;;;13.90;;
5303;SDS011;2674;49.722;10.892;2023-08-30T07:54:51;21.00;;;14.37;;
5303;SDS011;2674;49.722;10.892;2023-08-30T07:57:17;21.27;;;14.13;;
5303;SDS011;2674;49.722;10.892;2023-08-30T07:59:43;18.40;;;12.73;;
5303;SDS011;2674;49.722;10.892;2023-08-30T08:02:09;16.60;;;12.63;;
5303;SDS011;2674;49.722;10.892;2023-08-30T08:04:35;18.57;;;13.20;;
5303;SDS011;2674;49.722;10.892;2023-08-30T08:07:01;20.53;;;13.03;;
5303;SDS011;2674;49.722;10.892;2023-08-30T08:09:27;15.47;;;12.40;;
5303;SDS011;2674;49.722;10.892;2023-08-30T08:11:53;17.33;;;13.03;;
5303;SDS011;2674;49.722;10.892;2023-08-30T08:14:21;16.03;;;12.30;;
5303;SDS011;2674;49.722;10.892;2023-08-30T08:16:47;15.83;;;12.43;;
5303;SDS011;2674;49.722;10.892;2023-08-30T08:19:13;15.40;;;13.00;;
5303;SDS011;2674;49.722;10.892;2023-08-30T08:21:39;16.90;;;14.57;;
5303;SDS011;2674;49.722;10.892;2023-08-30T08:24:05;15.10;;;11.90;;
5303;SDS011;2674;49.722;10.892;2023-08-30T08:26:31;17.58;;;12.63;;
5303;SDS011;2674;49.722;10.892;2023-08-30T08:28:57;14.73;;;11.80;;
5303;SDS011;2674;49.722;10.892;2023-08-30T08:31:23;19.13;;;11.43;;
5303;SDS011;2674;49.722;10.892;2023-08-30T08:36:37;11.50;;;10.20;;
5303;SDS011;2674;49.722;10.892;2023-08-30T08:39:05;13.90;;;11.17;;
5303;SDS011;2674;49.722;10.892;2023-08-30T08:41:40;14.07;;;10.57;;
5303;SDS011;2674;49.722;10.892;2023-08-30T08:44:08;16.17;;;11.00;;
5303;SDS011;2674;49.722;10.892;2023-08-30T08:46:38;14.70;;;12.20;;
5303;SDS011;2674;49.722;10.892;2023-08-30T08:49:08;16.70;;;11.20;;
5303;SDS011;2674;49.722;10.892;2023-08-30T08:51:35;11.53;;;10.13;;
5303;SDS011;2674;49.722;10.892;2023-08-30T08:54:02;15.20;;;11.27;;
5303;SDS011;2674;49.722;10.892;2023-08-30T08:56:32;16.93;;;13.03;;
5303;SDS011;2674;49.722;10.892;2023-08-30T08:58:59;14.57;;;11.70;;
5303;SDS011;2674;49.722;10.892;2023-08-30T09:01:26;18.90;;;14.13;;
5303;SDS011;2674;49.722;10.892;2023-08-30T09:03:52;16.97;;;12.60;;
5303;SDS011;2674;49.722;10.892;2023-08-30T09:06:18;16.30;;;13.23;;
5303;SDS011;2674;49.722;10.892;2023-08-30T09:08:44;17.63;;;14.23;;
5303;SDS011;2674;49.722;10.892;2023-08-30T09:11:10;17.93;;;13.77;;
5303;SDS011;2674;49.722;10.892;2023-08-30T09:13:36;15.17;;;12.70;;
5303;SDS011;2674;49.722;10.892;2023-08-30T09:16:02;16.90;;;13.43;;
5303;SDS011;2674;49.722;10.892;2023-08-30T09:18:36;16.87;;;13.37;;
5303;SDS011;2674;49.722;10.892;2023-08-30T09:21:08;17.23;;;12.23;;
5303;SDS011;2674;49.722;10.892;2023-08-30T09:23:35;13.57;;;10.93;;
5303;SDS011;2674;49.722;10.892;2023-08-30T09:26:01;13.47;;;11.00;;
5303;SDS011;2674;49.722;10.892;2023-08-30T09:28:27;18.70;;;11.97;;
5303;SDS011;2674;49.722;10.892;2023-08-30T09:30:53;15.03;;;11.03;;
5303;SDS011;2674;49.722;10.892;2023-08-30T09:33:20;12.03;;;9.80;;
5303;SDS011;2674;49.722;10.892;2023-08-30T09:35:59;17.80;;;10.60;;
5303;SDS011;2674;49.722;10.892;2023-08-30T09:38:25;17.27;;;10.80;;
5303;SDS011;2674;49.722;10.892;2023-08-30T09:40:52;15.70;;;11.90;;
5303;SDS011;2674;49.722;10.892;2023-08-30T09:43:27;11.60;;;8.77;;
5303;SDS011;2674;49.722;10.892;2023-08-30T09:45:53;13.40;;;9.67;;
5303;SDS011;2674;49.722;10.892;2023-08-30T09:48:22;13.60;;;7.97;;
5303;SDS011;2674;49.722;10.892;2023-08-30T09:50:53;10.00;;;8.20;;
5303;SDS011;2674;49.722;10.892;2023-08-30T09:53:24;9.40;;;8.13;;
5303;SDS011;2674;49.722;10.892;2023-08-30T09:55:54;13.17;;;8.30;;
5303;SDS011;2674;49.722;10.892;2023-08-30T09:58:23;9.80;;;7.97;;
5303;SDS011;2674;49.722;10.892;2023-08-30T10:00:52;9.03;;;7.90;;
5303;SDS011;2674;49.722;10.892;2023-08-30T10:03:19;8.87;;;7.97;;
5303;SDS011;2674;49.722;10.892;2023-08-30T10:05:45;16.53;;;7.63;;
5303;SDS011;2674;49.722;10.892;2023-08-30T10:08:13;15.80;;;9.70;;
5303;SDS011;2674;49.722;10.892;2023-08-30T10:10:39;12.73;;;7.77;;
5303;SDS011;2674;49.722;10.892;2023-08-30T10:13:06;6.30;;;5.70;;
5303;SDS011;2674;49.722;10.892;2023-08-30T10:15:33;6.57;;;5.80;;
5303;SDS011;2674;49.722;10.892;2023-08-30T10:18:01;7.63;;;6.87;;
5303;SDS011;2674;49.722;10.892;2023-08-30T10:20:28;10.23;;;7.43;;
5303;SDS011;2674;49.722;10.892;2023-08-30T10:22:55;8.17;;;6.80;;
5303;SDS011;2674;49.722;10.892;2023-08-30T10:25:25;9.30;;;6.60;;
5303;SDS011;2674;49.722;10.892;2023-08-30T10:27:52;11.60;;;7.10;;
5303;SDS011;2674;49.722;10.892;2023-08-30T10:30:19;10.30;;;6.60;;
5303;SDS011;2674;49.722;10.892;2023-08-30T10:32:47;8.23;;;6.53;;
5303;SDS011;2674;49.722;10.892;2023-08-30T10:35:13;9.47;;;6.17;;
5303;SDS011;2674;49.722;10.892;2023-08-30T10:37:40;10.00;;;7.80;;
5303;SDS011;2674;49.722;10.892;2023-08-30T10:40:07;8.80;;;6.93;;
5303;SDS011;2674;49.722;10.892;2023-08-30T10:42:34;9.73;;;6.73;;
5303;SDS011;2674;49.722;10.892;2023-08-30T10:45:01;8.37;;;7.00;;
5303;SDS011;2674;49.722;10.892;2023-08-30T10:47:30;10.63;;;6.50;;
5303;SDS011;2674;49.722;10.892;2023-08-30T10:49:57;8.77;;;7.00;;
5303;SDS011;2674;49.722;10.892;2023-08-30T10:52:29;11.40;;;6.20;;
5303;SDS011;2674;49.722;10.892;2023-08-30T10:55:05;9.70;;;5.90;;
5303;SDS011;2674;49.722;10.892;2023-08-30T10:57:36;7.03;;;6.17;;
5303;SDS011;2674;49.722;10.892;2023-08-30T11:00:03;7.57;;;6.00;;
5303;SDS011;2674;49.722;10.892;2023-08-30T11:02:30;10.10;;;6.30;;
5303;SDS011;2674;49.722;10.892;2023-08-30T11:04:57;11.80;;;7.43;;
5303;SDS011;2674;49.722;10.892;2023-08-30T11:07:27;7.23;;;5.57;;
5303;SDS011;2674;49.722;10.892;2023-08-30T11:09:53;7.70;;;5.47;;
5303;SDS011;2674;49.722;10.892;2023-08-30T11:12:19;10.93;;;6.70;;
5303;SDS011;2674;49.722;10.892;2023-08-30T11:14:51;12.77;;;4.93;;
5303;SDS011;2674;49.722;10.892;2023-08-30T11:17:18;13.10;;;7.23;;
5303;SDS011;2674;49.722;10.892;2023-08-30T11:19:45;7.57;;;6.70;;
5303;SDS011;2674;49.722;10.892;2023-08-30T11:22:14;8.53;;;6.40;;
5303;SDS011;2674;49.722;10.892;2023-08-30T11:24:43;7.10;;;5.77;;
5303;SDS011;2674;49.722;10.892;2023-08-30T11:27:09;7.70;;;5.03;;
5303;SDS011;2674;49.722;10.892;2023-08-30T11:29:35;7.60;;;5.37;;
5303;SDS011;2674;49.722;10.892;2023-08-30T11:32:01;8.63;;;5.50;;
5303;SDS011;2674;49.722;10.892;2023-08-30T11:34:27;5.80;;;5.20;;
5303;SDS011;2674;49.722;10.892;2023-08-30T11:36:52;7.13;;;5.27;;
5303;SDS011;2674;49.722;10.892;2023-08-30T11:39:19;9.47;;;5.20;;
5303;SDS011;2674;49.722;10.892;2023-08-30T11:41:47;6.97;;;5.60;;
5303;SDS011;2674;49.722;10.892;2023-08-30T11:44:15;7.07;;;6.33;;
5303;SDS011;2674;49.722;10.892;2023-08-30T11:46:41;7.00;;;4.57;;
5303;SDS011;2674;49.722;10.892;2023-08-30T11:49:07;8.20;;;4.53;;
5303;SDS011;2674;49.722;10.892;2023-08-30T11:51:34;7.00;;;5.17;;
5303;SDS011;2674;49.722;10.892;2023-08-30T11:54:00;8.20;;;6.03;;
5303;SDS011;2674;49.722;10.892;2023-08-30T11:56:28;19.57;;;9.50;;
5303;SDS011;2674;49.722;10.892;2023-08-30T11:58:55;9.13;;;6.10;;
5303;SDS011;2674;49.722;10.892;2023-08-30T12:01:21;9.03;;;5.30;;
5303;SDS011;2674;49.722;10.892;2023-08-30T12:03:47;4.00;;;3.60;;
5303;SDS011;2674;49.722;10.892;2023-08-30T12:06:15;4.93;;;3.97;;
5303;SDS011;2674;49.722;10.892;2023-08-30T12:08:42;5.60;;;4.70;;
5303;SDS011;2674;49.722;10.892;2023-08-30T12:11:20;4.57;;;4.17;;
5303;SDS011;2674;49.722;10.892;2023-08-30T12:13:46;5.30;;;4.80;;
5303;SDS011;2674;49.722;10.892;2023-08-30T12:16:16;8.83;;;4.40;;
5303;SDS011;2674;49.722;10.892;2023-08-30T12:18:42;4.30;;;3.90;;
5303;SDS011;2674;49.722;10.892;2023-08-30T12:21:09;5.27;;;4.60;;
5303;SDS011;2674;49.722;10.892;2023-08-30T12:23:35;4.90;;;4.37;;
5303;SDS011;2674;49.722;10.892;2023-08-30T12:26:07;9.40;;;4.97;;
5303;SDS011;2674;49.722;10.892;2023-08-30T12:28:35;6.83;;;4.40;;
5303;SDS011;2674;49.722;10.892;2023-08-30T12:31:03;5.60;;;4.93;;
5303;SDS011;2674;49.722;10.892;2023-08-30T12:33:29;5.80;;;4.90;;
5303;SDS011;2674;49.722;10.892;2023-08-30T12:35:56;4.80;;;4.40;;
5303;SDS011;2674;49.722;10.892;2023-08-30T12:38:23;4.97;;;4.53;;
5303;SDS011;2674;49.722;10.892;2023-08-30T12:40:50;5.13;;;4.63;;
5303;SDS011;2674;49.722;10.892;2023-08-30T12:43:18;5.83;;;4.33;;
5303;SDS011;2674;49.722;10.892;2023-08-30T12:45:47;6.57;;;5.03;;
5303;SDS011;2674;49.722;10.892;2023-08-30T12:48:14;6.40;;;4.37;;
5303;SDS011;2674;49.722;10.892;2023-08-30T12:50:42;4.83;;;4.33;;
5303;SDS011;2674;49.722;10.892;2023-08-30T12:53:10;5.30;;;4.80;;
5303;SDS011;2674;49.722;10.892;2023-08-30T12:55:36;6.40;;;4.80;;
5303;SDS011;2674;49.722;10.892;2023-08-30T12:58:06;5.53;;;4.33;;
5303;SDS011;2674;49.722;10.892;2023-08-30T13:00:32;7.77;;;4.33;;
5303;SDS011;2674;49.722;10.892;2023-08-30T13:02:59;6.50;;;4.30;;
5303;SDS011;2674;49.722;10.892;2023-08-30T13:05:25;6.10;;;5.00;;
5303;SDS011;2674;49.722;10.892;2023-08-30T13:07:51;4.63;;;3.90;;
5303;SDS011;2674;49.722;10.892;2023-08-30T13:10:17;5.13;;;4.53;;
5303;SDS011;2674;49.722;10.892;2023-08-30T13:12:43;4.10;;;3.70;;
5303;SDS011;2674;49.722;10.892;2023-08-30T13:15:09;3.70;;;3.40;;
5303;SDS011;2674;49.722;10.892;2023-08-30T13:17:37;3.90;;;3.60;;
5303;SDS011;2674;49.722;10.892;2023-08-30T13:20:03;5.00;;;4.20;;
5303;SDS011;2674;49.722;10.892;2023-08-30T13:22:30;8.50;;;4.77;;
5303;SDS011;2674;49.722;10.892;2023-08-30T13:24:56;6.80;;;3.93;;
5303;SDS011;2674;49.722;10.892;2023-08-30T13:27:22;6.70;;;4.27;;
5303;SDS011;2674;49.722;10.892;2023-08-30T13:29:47;3.93;;;3.63;;
5303;SDS011;2674;49.722;10.892;2023-08-30T13:32:13;3.57;;;3.27;;
5303;SDS011;2674;49.722;10.892;2023-08-30T13:34:42;4.50;;;3.67;;
5303;SDS011;2674;49.722;10.892;2023-08-30T13:37:12;4.47;;;3.23;;
5303;SDS011;2674;49.722;10.892;2023-08-30T13:39:41;3.97;;;3.60;;
5303;SDS011;2674;49.722;10.892;2023-08-30T13:42:07;3.57;;;3.20;;
5303;SDS011;2674;49.722;10.892;2023-08-30T13:44:33;3.50;;;3.20;;
5303;SDS011;2674;49.722;10.892;2023-08-30T13:47:05;2.90;;;2.70;;
5303;SDS011;2674;49.722;10.892;2023-08-30T13:49:31;3.73;;;3.07;;
5303;SDS011;2674;49.722;10.892;2023-08-30T13:51:57;3.27;;;3.07;;
5303;SDS011;2674;49.722;10.892;2023-08-30T13:54:24;2.83;;;2.63;;
5303;SDS011;2674;49.722;10.892;2023-08-30T13:56:51;3.03;;;2.73;;
5303;SDS011;2674;49.722;10.892;2023-08-30T13:59:16;4.30;;;2.90;;
5303;SDS011;2674;49.722;10.892;2023-08-30T14:01:42;3.60;;;3.30;;
5303;SDS011;2674;49.722;10.892;2023-08-30T14:04:08;3.17;;;2.17;;
5303;SDS011;2674;49.722;10.892;2023-08-30T14:06:34;3.23;;;2.83;;
5303;SDS011;2674;49.722;10.892;2023-08-30T14:09:00;2.97;;;2.77;;
5303;SDS011;2674;49.722;10.892;2023-08-30T14:11:26;3.80;;;2.50;;
5303;SDS011;2674;49.722;10.892;2023-08-30T14:13:52;2.60;;;2.07;;
5303;SDS011;2674;49.722;10.892;2023-08-30T14:16:18;3.90;;;2.60;;
5303;SDS011;2674;49.722;10.892;2023-08-30T14:18:44;4.00;;;2.10;;
5303;SDS011;2674;49.722;10.892;2023-08-30T14:21:09;3.07;;;2.10;;
5303;SDS011;2674;49.722;10.892;2023-08-30T14:23:35;4.17;;;3.13;;
5303;SDS011;2674;49.722;10.892;2023-08-30T14:26:05;4.17;;;2.83;;
5303;SDS011;2674;49.722;10.892;2023-08-30T14:28:35;2.70;;;2.50;;
5303;SDS011;2674;49.722;10.892;2023-08-30T14:31:08;2.17;;;1.97;;
5303;SDS011;2674;49.722;10.892;2023-08-30T14:33:35;2.40;;;2.23;;
5303;SDS011;2674;49.722;10.892;2023-08-30T14:36:01;2.70;;;2.30;;
5303;SDS011;2674;49.722;10.892;2023-08-30T14:38:27;2.53;;;2.10;;
5303;SDS011;2674;49.722;10.892;2023-08-30T14:40:54;2.93;;;2.50;;
5303;SDS011;2674;49.722;10.892;2023-08-30T14:43:21;1.97;;;1.87;;
5303;SDS011;2674;49.722;10.892;2023-08-30T14:45:47;3.20;;;2.40;;
5303;SDS011;2674;49.722;10.892;2023-08-30T14:48:12;3.00;;;2.30;;
5303;SDS011;2674;49.722;10.892;2023-08-30T14:50:38;3.13;;;2.60;;
5303;SDS011;2674;49.722;10.892;2023-08-30T14:53:04;2.80;;;2.60;;
5303;SDS011;2674;49.722;10.892;2023-08-30T14:55:31;1.83;;;1.73;;
5303;SDS011;2674;49.722;10.892;2023-08-30T14:57:57;3.33;;;2.07;;
5303;SDS011;2674;49.722;10.892;2023-08-30T15:00:23;2.70;;;2.50;;
5303;SDS011;2674;49.722;10.892;2023-08-30T15:02:49;2.60;;;2.40;;
5303;SDS011;2674;49.722;10.892;2023-08-30T15:05:15;2.60;;;2.40;;
5303;SDS011;2674;49.722;10.892;2023-08-30T15:07:41;2.73;;;2.50;;
5303;SDS011;2674;49.722;10.892;2023-08-30T15:10:07;1.97;;;1.87;;